createdAt,value
2018-05-14T00:02:10.475Z,4.90
2018-05-14T00:04:38.179Z,5.47
2018-05-14T00:07:05.900Z,4.67
2018-05-14T00:09:34.247Z,4.93
2018-05-14T00:12:01.986Z,5.07
2018-05-14T00:14:29.674Z,5.20
2018-05-14T00:16:57.386Z,4.90
2018-05-14T00:19:25.846Z,4.90
2018-05-14T00:21:53.540Z,5.27
2018-05-14T00:24:21.980Z,5.57
2018-05-14T00:26:50.254Z,5.30
2018-05-14T00:29:17.943Z,5.37
2018-05-14T00:31:45.619Z,5.53
2018-05-14T00:34:13.319Z,5.30
2018-05-14T00:36:41.751Z,5.63
2018-05-14T00:39:09.482Z,5.33
2018-05-14T00:41:37.184Z,5.10
2018-05-14T00:44:04.908Z,4.60
2018-05-14T00:46:32.590Z,5.20
2018-05-14T00:49:00.317Z,5.37
2018-05-14T00:51:27.982Z,5.33
2018-05-14T00:53:56.476Z,5.10
2018-05-14T00:56:24.151Z,5.20
2018-05-14T00:58:52.625Z,5.33
2018-05-14T01:01:20.840Z,5.27
2018-05-14T01:03:48.590Z,5.70
2018-05-14T01:06:16.316Z,5.50
2018-05-14T01:08:44.022Z,5.87
2018-05-14T01:11:12.439Z,4.67
2018-05-14T01:13:40.196Z,5.40
2018-05-14T01:16:07.915Z,5.47
2018-05-14T01:18:35.645Z,5.43
2018-05-14T01:21:03.359Z,4.83
2018-05-14T01:23:30.910Z,5.40
2018-05-14T01:25:58.487Z,5.90
2018-05-14T01:28:26.076Z,5.97
2018-05-14T01:30:54.560Z,5.87
2018-05-14T01:33:22.994Z,6.03
2018-05-14T01:35:50.701Z,5.63
2018-05-14T01:38:18.426Z,5.90
2018-05-14T01:40:46.084Z,5.63
2018-05-14T01:43:13.799Z,5.97
2018-05-14T01:45:41.496Z,5.80
2018-05-14T01:48:09.204Z,6.20
2018-05-14T01:50:36.843Z,6.07
2018-05-14T01:53:04.577Z,5.97
2018-05-14T01:55:34.037Z,5.83
2018-05-14T01:58:02.018Z,6.70
2018-05-14T02:00:30.629Z,6.23
2018-05-14T02:03:02.151Z,6.13
2018-05-14T02:05:31.776Z,5.37
2018-05-14T02:07:59.474Z,5.63
2018-05-14T02:10:27.023Z,6.23
2018-05-14T02:12:54.649Z,5.83
2018-05-14T02:15:22.195Z,5.50
2018-05-14T02:17:50.558Z,5.90
2018-05-14T02:20:18.893Z,5.90
2018-05-14T02:22:46.471Z,6.33
2018-05-14T02:25:14.017Z,6.40
2018-05-14T02:27:41.600Z,6.27
2018-05-14T02:30:09.159Z,6.80
2018-05-14T02:32:36.734Z,6.30
2018-05-14T02:35:04.289Z,5.77
2018-05-14T02:37:31.886Z,6.50
2018-05-14T02:39:59.486Z,6.77
2018-05-14T02:42:27.035Z,6.30
2018-05-14T02:44:55.371Z,6.20
2018-05-14T02:47:22.971Z,5.37
2018-05-14T02:49:50.534Z,6.13
2018-05-14T02:52:18.106Z,5.90
2018-05-14T02:54:45.670Z,6.40
2018-05-14T02:57:14.033Z,6.73
2018-05-14T02:59:41.603Z,6.67
2018-05-14T03:02:09.149Z,6.40
2018-05-14T03:04:36.741Z,6.63
2018-05-14T03:07:05.107Z,7.13
2018-05-14T03:09:32.682Z,6.70
2018-05-14T03:12:00.245Z,6.43
2018-05-14T03:14:27.821Z,6.37
2018-05-14T03:16:55.374Z,6.57
2018-05-14T03:19:22.963Z,6.57
2018-05-14T03:21:51.279Z,6.50
2018-05-14T03:24:18.875Z,6.73
2018-05-14T03:26:46.446Z,6.73
2018-05-14T03:29:14.032Z,7.03
2018-05-14T03:31:42.368Z,6.53
2018-05-14T03:34:09.924Z,6.27
2018-05-14T03:36:37.506Z,6.57
2018-05-14T03:39:05.051Z,7.17
2018-05-14T03:41:32.642Z,6.67
2018-05-14T03:44:00.957Z,6.63
2018-05-14T03:46:29.369Z,6.97
2018-05-14T03:48:56.912Z,6.73
2018-05-14T03:51:25.257Z,6.10
2018-05-14T03:53:52.796Z,6.80
2018-05-14T03:56:20.390Z,6.67
2018-05-14T03:58:59.625Z,6.60
2018-05-14T04:04:49.017Z,6.90
2018-05-14T04:07:17.452Z,7.07
2018-05-14T04:09:45.020Z,6.80
2018-05-14T04:12:12.610Z,6.13
2018-05-14T04:14:40.169Z,7.13
2018-05-14T04:17:07.772Z,6.60
2018-05-14T04:19:35.335Z,5.83
2018-05-14T04:22:03.657Z,6.87
2018-05-14T04:24:31.244Z,5.90
2018-05-14T04:26:58.830Z,6.03
2018-05-14T04:29:27.178Z,5.87
2018-05-14T04:31:54.727Z,6.63
2018-05-14T04:34:22.315Z,6.33
2018-05-14T04:36:49.868Z,6.03
2018-05-14T04:39:17.454Z,6.47
2018-05-14T04:41:45.002Z,6.70
2018-05-14T04:44:12.619Z,6.60
2018-05-14T04:46:40.176Z,6.83
2018-05-14T04:49:08.527Z,6.90
2018-05-14T04:51:36.075Z,6.13
2018-05-14T04:54:03.676Z,7.57
2018-05-14T04:56:31.356Z,6.90
2018-05-14T04:58:59.084Z,6.53
2018-05-14T05:01:26.652Z,7.53
2018-05-14T05:03:54.342Z,6.90
2018-05-14T05:06:22.698Z,6.53
2018-05-14T05:08:50.614Z,7.17
2018-05-14T05:11:18.328Z,6.70
2018-05-14T05:13:45.886Z,6.83
2018-05-14T05:16:13.489Z,6.73
2018-05-14T05:18:41.059Z,6.97
2018-05-14T05:21:08.649Z,6.63
2018-05-14T05:23:36.242Z,6.80
2018-05-14T05:26:03.851Z,6.73
2018-05-14T05:28:31.406Z,6.90
2018-05-14T05:30:59.003Z,7.00
2018-05-14T05:33:27.322Z,6.47
2018-05-14T05:35:54.893Z,6.93
2018-05-14T05:38:22.442Z,5.97
2018-05-14T05:40:50.053Z,5.80
2018-05-14T05:43:17.621Z,5.90
2018-05-14T05:45:45.195Z,6.23
2018-05-14T05:48:12.756Z,5.60
2018-05-14T05:50:40.379Z,6.93
2018-05-14T05:53:07.949Z,6.77
2018-05-14T05:55:35.730Z,7.10
2018-05-14T05:58:03.338Z,6.20
2018-05-14T06:00:30.903Z,6.27
2018-05-14T06:02:59.260Z,5.90
2018-05-14T06:05:26.816Z,6.50
2018-05-14T06:07:54.425Z,5.83
2018-05-14T06:10:23.909Z,6.07
2018-05-14T06:12:51.493Z,5.13
2018-05-14T06:15:19.824Z,6.30
2018-05-14T06:17:47.413Z,5.40
2018-05-14T06:20:14.992Z,5.40
2018-05-14T06:22:42.592Z,5.90
2018-05-14T06:25:10.150Z,5.67
2018-05-14T06:27:37.736Z,6.13
2018-05-14T06:30:05.311Z,6.10
2018-05-14T06:32:32.904Z,6.27
2018-05-14T06:35:00.457Z,5.77
2018-05-14T06:37:28.029Z,5.80
2018-05-14T06:39:55.622Z,5.70
2018-05-14T06:42:23.959Z,5.30
2018-05-14T06:44:51.543Z,5.83
2018-05-14T06:47:19.138Z,5.73
2018-05-14T06:49:47.551Z,5.30
2018-05-14T06:52:15.972Z,5.73
2018-05-14T06:54:43.537Z,5.70
2018-05-14T06:57:11.106Z,5.63
2018-05-14T06:59:38.752Z,5.40
2018-05-14T07:02:06.319Z,5.83
2018-05-14T07:04:33.948Z,5.43
2018-05-14T07:07:01.520Z,5.50
2018-05-14T07:09:29.117Z,5.00
2018-05-14T07:11:56.679Z,5.43
2018-05-14T07:14:24.288Z,5.80
2018-05-14T07:16:52.625Z,6.10
2018-05-14T07:19:20.294Z,5.70
2018-05-14T07:21:48.554Z,5.07
2018-05-14T07:24:16.123Z,6.10
2018-05-14T07:26:43.713Z,5.00
2018-05-14T07:29:11.298Z,4.80
2018-05-14T07:31:39.655Z,5.60
2018-05-14T07:34:07.219Z,5.30
2018-05-14T07:36:34.795Z,5.20
2018-05-14T07:39:02.382Z,4.57
2018-05-14T07:41:30.762Z,4.90
2018-05-14T07:43:59.418Z,4.97
2018-05-14T07:46:27.001Z,5.20
2018-05-14T07:48:54.571Z,5.10
2018-05-14T07:51:22.164Z,5.03
2018-05-14T07:53:50.521Z,5.13
2018-05-14T07:56:18.218Z,5.47
2018-05-14T07:58:46.554Z,5.47
2018-05-14T08:01:14.117Z,5.40
2018-05-14T08:03:41.718Z,5.13
2018-05-14T08:06:10.041Z,5.27
2018-05-14T08:08:37.628Z,5.43
2018-05-14T08:11:05.195Z,5.83
2018-05-14T08:13:32.800Z,6.00
2018-05-14T08:16:01.143Z,5.07
2018-05-14T08:18:28.749Z,4.73
2018-05-14T08:20:57.050Z,4.80
2018-05-14T08:23:24.744Z,5.10
2018-05-14T08:25:52.231Z,5.70
2018-05-14T08:28:19.823Z,6.00
2018-05-14T08:30:47.399Z,5.57
2018-05-14T08:33:15.757Z,5.07
2018-05-14T08:35:43.348Z,5.10
2018-05-14T08:38:11.714Z,4.70
2018-05-14T08:40:39.265Z,4.90
2018-05-14T08:43:06.851Z,4.90
2018-05-14T08:45:35.212Z,5.33
2018-05-14T08:48:02.833Z,5.20
2018-05-14T08:50:30.400Z,5.00
2018-05-14T08:52:57.951Z,4.90
2018-05-14T08:55:25.538Z,4.70
2018-05-14T08:57:53.096Z,5.10
2018-05-14T09:00:20.698Z,4.80
2018-05-14T09:02:48.251Z,4.80
2018-05-14T09:05:15.848Z,5.23
2018-05-14T09:07:43.438Z,5.10
2018-05-14T09:10:11.000Z,4.63
2018-05-14T09:12:38.583Z,4.87
2018-05-14T09:15:06.211Z,4.63
2018-05-14T09:17:34.550Z,4.40
2018-05-14T09:20:02.128Z,4.43
2018-05-14T09:22:29.719Z,4.30
2018-05-14T09:24:57.313Z,4.63
2018-05-14T09:27:24.906Z,4.57
2018-05-14T09:29:52.458Z,4.23
2018-05-14T09:32:20.087Z,4.67
2018-05-14T09:34:48.392Z,4.93
2018-05-14T09:37:16.049Z,4.83
2018-05-14T09:39:59.267Z,4.70
2018-05-14T09:42:26.863Z,3.97
2018-05-14T09:44:55.194Z,4.00
2018-05-14T09:47:22.777Z,4.20
2018-05-14T09:49:51.250Z,3.90
2018-05-14T09:52:19.599Z,4.33
2018-05-14T09:54:47.217Z,4.17
2018-05-14T09:57:14.871Z,4.53
2018-05-14T09:59:42.367Z,4.13
2018-05-14T10:02:09.927Z,4.27
2018-05-14T10:04:37.516Z,4.13
2018-05-14T10:07:05.070Z,3.90
2018-05-14T10:09:32.650Z,4.93
2018-05-14T10:12:00.214Z,4.10
2018-05-14T10:14:28.544Z,4.30
2018-05-14T10:16:56.861Z,4.43
2018-05-14T10:19:24.444Z,4.33
2018-05-14T10:21:52.923Z,4.43
2018-05-14T10:24:20.505Z,4.40
2018-05-14T10:26:48.055Z,4.00
2018-05-14T10:29:15.636Z,4.43
2018-05-14T10:31:43.192Z,3.87
2018-05-14T10:34:10.768Z,4.47
2018-05-14T10:36:38.435Z,4.27
2018-05-14T10:39:06.827Z,4.17
2018-05-14T10:41:34.418Z,4.07
2018-05-14T10:44:02.733Z,4.17
2018-05-14T10:46:30.348Z,4.43
2018-05-14T10:48:57.928Z,3.90
2018-05-14T10:51:26.283Z,4.00
2018-05-14T10:53:53.868Z,3.50
2018-05-14T10:56:21.419Z,4.03
2018-05-14T10:58:49.008Z,4.00
2018-05-14T11:01:17.375Z,3.80
2018-05-14T11:03:44.940Z,3.63
2018-05-14T11:06:12.516Z,3.97
2018-05-14T11:08:40.859Z,3.83
2018-05-14T11:11:08.522Z,3.63
2018-05-14T11:13:36.069Z,3.90
2018-05-14T11:16:03.632Z,4.00
2018-05-14T11:18:31.215Z,3.83
2018-05-14T11:20:58.775Z,3.80
2018-05-14T11:23:26.355Z,3.73
2018-05-14T11:25:53.915Z,4.10
2018-05-14T11:28:22.395Z,4.43
2018-05-14T11:30:49.957Z,4.20
2018-05-14T11:33:17.534Z,5.07
2018-05-14T11:35:45.130Z,4.30
2018-05-14T11:38:12.772Z,4.30
2018-05-14T11:40:40.429Z,3.93
2018-05-14T11:43:08.832Z,4.30
2018-05-14T11:45:36.537Z,3.90
2018-05-14T11:48:04.138Z,4.30
2018-05-14T11:50:32.475Z,3.97
2018-05-14T11:53:00.194Z,3.60
2018-05-14T11:55:27.774Z,4.07
2018-05-14T11:57:55.432Z,4.13
2018-05-14T12:00:23.039Z,4.30
2018-05-14T12:02:51.417Z,4.50
2018-05-14T12:05:19.360Z,3.90
2018-05-14T12:07:46.947Z,4.10
2018-05-14T12:10:15.317Z,4.10
2018-05-14T12:12:42.880Z,4.37
2018-05-14T12:15:10.475Z,3.90
2018-05-14T12:17:38.035Z,3.80
2018-05-14T12:20:06.355Z,4.40
2018-05-14T12:22:33.935Z,3.93
2018-05-14T12:25:01.491Z,3.67
2018-05-14T12:27:29.077Z,3.80
2018-05-14T12:29:56.643Z,4.80
2018-05-14T12:32:24.272Z,3.90
2018-05-14T12:34:51.827Z,4.27
2018-05-14T12:37:19.417Z,3.97
2018-05-14T12:39:46.986Z,3.83
2018-05-14T12:42:14.627Z,4.40
2018-05-14T12:44:42.196Z,4.43
2018-05-14T12:47:09.752Z,4.40
2018-05-14T12:49:37.357Z,4.20
2018-05-14T12:52:05.115Z,4.53
2018-05-14T12:54:32.659Z,5.20
2018-05-14T12:57:00.279Z,4.93
2018-05-14T12:59:27.895Z,4.90
2018-05-14T13:01:55.453Z,4.53
2018-05-14T13:04:23.052Z,5.20
2018-05-14T13:06:50.632Z,5.10
2018-05-14T13:09:18.229Z,5.20
2018-05-14T13:11:46.568Z,5.27
2018-05-14T13:14:14.172Z,5.30
2018-05-14T13:16:42.507Z,4.97
2018-05-14T13:19:10.110Z,5.43
2018-05-14T13:21:38.430Z,5.60
2018-05-14T13:24:06.041Z,5.10
2018-05-14T13:26:33.591Z,5.03
2018-05-14T13:29:01.184Z,5.00
2018-05-14T13:31:29.507Z,4.97
2018-05-14T13:33:57.124Z,5.93
2018-05-14T13:36:24.688Z,5.80
2018-05-14T13:38:52.282Z,5.37
2018-05-14T13:41:20.611Z,5.10
2018-05-14T13:43:48.190Z,5.57
2018-05-14T13:46:15.743Z,5.20
2018-05-14T13:48:43.330Z,5.03
2018-05-14T13:51:10.931Z,5.20
2018-05-14T13:53:38.521Z,4.80
2018-05-14T13:56:06.112Z,5.20
2018-05-14T13:58:33.681Z,5.30
2018-05-14T14:01:01.353Z,5.03
2018-05-14T14:03:29.715Z,5.90
2018-05-14T14:05:57.395Z,5.87
2018-05-14T14:08:24.981Z,5.33
2018-05-14T14:10:52.776Z,4.87
2018-05-14T14:13:20.860Z,5.27
2018-05-14T14:15:48.713Z,4.83
2018-05-14T14:18:16.429Z,5.10
2018-05-14T14:20:44.036Z,4.80
2018-05-14T14:23:12.517Z,5.27
2018-05-14T14:25:39.980Z,4.80
2018-05-14T14:28:07.554Z,4.97
2018-05-14T14:30:35.975Z,5.17
2018-05-14T14:33:03.708Z,4.73
2018-05-14T14:35:32.074Z,4.93
2018-05-14T14:38:00.442Z,5.00
2018-05-14T14:40:28.043Z,4.90
2018-05-14T14:42:56.963Z,4.93
2018-05-14T14:45:24.582Z,4.87
2018-05-14T14:47:52.219Z,5.90
2018-05-14T14:50:19.804Z,5.10
2018-05-14T14:52:47.820Z,5.40
2018-05-14T14:55:15.576Z,5.33
2018-05-14T14:57:46.373Z,5.40
2018-05-14T15:00:13.983Z,5.03
2018-05-14T15:02:42.265Z,5.57
2018-05-14T15:05:10.612Z,5.40
2018-05-14T15:07:38.223Z,5.23
2018-05-14T15:10:06.521Z,5.17
2018-05-14T15:12:34.108Z,4.70
2018-05-14T15:15:01.746Z,5.00
2018-05-14T15:17:29.308Z,4.90
2018-05-14T15:19:56.990Z,4.60
2018-05-14T15:22:24.612Z,5.27
2018-05-14T15:24:52.189Z,5.00
2018-05-14T15:27:19.850Z,5.27
2018-05-14T15:29:48.259Z,5.27
2018-05-14T15:32:15.978Z,4.47
2018-05-14T15:34:44.503Z,4.30
2018-05-14T15:37:12.296Z,4.77
2018-05-14T15:39:39.941Z,5.17
2018-05-14T15:42:07.547Z,4.57
2018-05-14T15:44:35.979Z,4.20
2018-05-14T15:47:05.375Z,4.60
2018-05-14T15:49:33.696Z,4.67
2018-05-14T15:52:01.989Z,4.70
2018-05-14T15:54:29.624Z,4.20
2018-05-14T15:56:57.354Z,4.73
2018-05-14T15:59:25.772Z,5.13
2018-05-14T16:01:53.526Z,4.33
2018-05-14T16:04:21.341Z,4.60
2018-05-14T16:06:48.941Z,4.10
2018-05-14T16:09:16.538Z,4.50
2018-05-14T16:11:44.185Z,5.33
2018-05-14T16:14:13.295Z,4.70
2018-05-14T16:16:40.897Z,5.07
2018-05-14T16:19:08.474Z,4.70
2018-05-14T16:21:36.100Z,4.40
2018-05-14T16:24:04.656Z,4.80
2018-05-14T16:26:32.280Z,4.60
2018-05-14T16:29:00.352Z,4.80
2018-05-14T16:31:28.049Z,4.63
2018-05-14T16:33:55.629Z,4.60
2018-05-14T16:36:25.163Z,4.37
2018-05-14T16:38:52.870Z,4.00
2018-05-14T16:41:20.426Z,3.97
2018-05-14T16:43:48.055Z,4.30
2018-05-14T16:46:15.630Z,4.17
2018-05-14T16:48:43.983Z,4.10
2018-05-14T16:51:11.572Z,4.87
2018-05-14T16:53:39.204Z,3.93
2018-05-14T16:56:06.775Z,4.30
2018-05-14T16:58:34.360Z,3.87
2018-05-14T17:01:02.266Z,3.73
2018-05-14T17:03:30.185Z,4.20
2018-05-14T17:05:58.584Z,3.70
2018-05-14T17:08:26.179Z,4.33
2018-05-14T17:10:54.753Z,4.07
2018-05-14T17:13:23.457Z,3.80
2018-05-14T17:15:51.034Z,4.03
2018-05-14T17:18:18.610Z,3.90
2018-05-14T17:20:46.203Z,4.43
2018-05-14T17:23:13.826Z,4.27
2018-05-14T17:25:41.556Z,4.40
2018-05-14T17:28:09.340Z,3.90
2018-05-14T17:30:36.934Z,3.90
2018-05-14T17:33:04.509Z,3.70
2018-05-14T17:35:32.429Z,3.87
2018-05-14T17:38:00.064Z,3.80
2018-05-14T17:40:27.877Z,3.70
2018-05-14T17:42:56.242Z,3.50
2018-05-14T17:45:23.809Z,3.90
2018-05-14T17:47:51.395Z,3.90
2018-05-14T17:50:19.716Z,3.77
2018-05-14T17:52:47.300Z,3.80
2018-05-14T17:55:14.891Z,3.10
2018-05-14T17:57:43.237Z,3.90
2018-05-14T18:00:10.811Z,3.93
2018-05-14T18:02:38.369Z,4.37
2018-05-14T18:05:05.983Z,3.90
2018-05-14T18:07:34.315Z,3.80
2018-05-14T18:10:01.921Z,3.87
2018-05-14T18:12:29.509Z,4.03
2018-05-14T18:14:57.836Z,4.23
2018-05-14T18:17:25.433Z,4.20
2018-05-14T18:19:58.783Z,4.20
2018-05-14T18:22:26.366Z,4.30
2018-05-14T18:24:59.832Z,4.37
2018-05-14T18:27:31.235Z,4.53
2018-05-14T18:30:13.680Z,4.27
2018-05-14T18:35:44.094Z,4.50
2018-05-14T18:38:11.681Z,4.30
2018-05-14T18:40:39.230Z,4.60
2018-05-14T18:43:07.583Z,4.60
2018-05-14T18:45:35.127Z,5.07
2018-05-14T18:48:02.710Z,4.47
2018-05-14T18:50:30.299Z,4.80
2018-05-14T18:52:57.847Z,4.43
2018-05-14T18:55:25.445Z,4.43
2018-05-14T18:57:53.762Z,4.97
2018-05-14T19:00:21.342Z,4.60
2018-05-14T19:02:48.892Z,5.17
2018-05-14T19:05:16.491Z,4.67
2018-05-14T19:07:44.099Z,4.63
2018-05-14T19:10:17.401Z,5.67
2018-05-14T19:12:45.403Z,4.50
2018-05-14T19:15:18.772Z,4.77
2018-05-14T19:17:51.975Z,4.60
2018-05-14T19:20:19.565Z,5.03
2018-05-14T19:23:05.973Z,5.50
2018-05-14T19:25:33.527Z,4.77
2018-05-14T19:28:06.873Z,4.80
2018-05-14T19:30:35.197Z,4.67
2018-05-14T19:33:02.763Z,4.90
2018-05-14T19:35:36.087Z,4.73
2018-05-14T19:38:03.637Z,4.70
2018-05-14T19:40:37.052Z,5.17
2018-05-14T19:43:04.611Z,4.87
2018-05-14T19:45:32.244Z,5.27
2018-05-14T19:47:59.811Z,4.67
2018-05-14T19:50:27.392Z,4.83
2018-05-14T19:52:54.968Z,4.40
2018-05-14T19:55:22.579Z,4.70
2018-05-14T19:57:50.135Z,5.10
2018-05-14T20:00:17.746Z,4.80
2018-05-14T20:02:45.309Z,5.23
2018-05-14T20:05:12.912Z,5.27
2018-05-14T20:07:40.579Z,5.80
2018-05-14T20:10:08.188Z,5.67
2018-05-14T20:12:35.767Z,5.20
2018-05-14T20:15:03.387Z,5.00
2018-05-14T20:17:31.727Z,4.87
2018-05-14T20:19:59.982Z,5.57
2018-05-14T20:22:27.801Z,5.13
2018-05-14T20:24:55.534Z,5.37
2018-05-14T20:27:23.099Z,5.03
2018-05-14T20:29:50.676Z,5.77
2018-05-14T20:32:18.266Z,5.03
2018-05-14T20:34:45.923Z,5.23
2018-05-14T20:37:13.746Z,5.23
2018-05-14T20:39:41.395Z,5.50
2018-05-14T20:42:09.159Z,5.87
2018-05-14T20:44:36.843Z,5.13
2018-05-14T20:47:04.436Z,5.97
2018-05-14T20:49:31.994Z,5.30
2018-05-14T20:51:59.574Z,5.83
2018-05-14T20:54:27.133Z,4.87
2018-05-14T20:56:54.720Z,5.30
2018-05-14T20:59:22.279Z,4.97
2018-05-14T21:01:49.852Z,5.07
2018-05-14T21:04:17.417Z,5.10
2018-05-14T21:06:44.990Z,4.90
2018-05-14T21:09:13.324Z,5.47
2018-05-14T21:11:40.923Z,5.13
2018-05-14T21:14:08.511Z,5.30
2018-05-14T21:16:36.842Z,5.43
2018-05-14T21:19:04.435Z,5.60
2018-05-14T21:21:32.068Z,5.27
2018-05-14T21:23:59.663Z,5.33
2018-05-14T21:26:27.227Z,5.43
2018-05-14T21:28:54.817Z,4.77
2018-05-14T21:31:23.212Z,5.43
2018-05-14T21:33:51.551Z,4.97
2018-05-14T21:36:19.095Z,4.87
2018-05-14T21:38:46.687Z,5.40
2018-05-14T21:41:14.305Z,4.80
2018-05-14T21:43:41.859Z,5.30
2018-05-14T21:46:10.186Z,5.27
2018-05-14T21:48:38.557Z,5.57
2018-05-14T21:51:06.129Z,5.40
2018-05-14T21:53:33.703Z,5.60
2018-05-14T21:56:01.272Z,6.13
2018-05-14T21:58:28.872Z,5.87
2018-05-14T22:00:57.191Z,5.63
2018-05-14T22:03:24.783Z,5.60
2018-05-14T22:05:53.246Z,5.80
2018-05-14T22:08:20.830Z,7.90
2018-05-14T22:10:48.382Z,6.67
2018-05-14T22:13:15.963Z,6.57
2018-05-14T22:15:43.553Z,6.20
2018-05-14T22:18:11.922Z,6.23
2018-05-14T22:20:39.524Z,6.30
2018-05-14T22:23:07.857Z,6.50
2018-05-14T22:25:35.443Z,6.50
2018-05-14T22:28:03.083Z,5.97
2018-05-14T22:30:30.702Z,5.77
2018-05-14T22:32:59.102Z,5.67
2018-05-14T22:35:26.664Z,5.50
2018-05-14T22:37:54.272Z,6.57
2018-05-14T22:40:21.858Z,6.50
2018-05-14T22:42:49.448Z,5.53
2018-05-14T22:45:17.807Z,5.83
2018-05-14T22:47:45.378Z,6.70
2018-05-14T22:50:12.983Z,6.00
2018-05-14T22:52:40.570Z,6.00
2018-05-14T22:55:08.130Z,6.53
2018-05-14T22:57:35.721Z,6.53
2018-05-14T23:00:03.284Z,6.83
2018-05-14T23:02:30.871Z,6.50
2018-05-14T23:04:59.225Z,6.23
2018-05-14T23:07:26.798Z,6.70
2018-05-14T23:09:54.381Z,7.00
2018-05-14T23:12:22.746Z,6.93
2018-05-14T23:14:50.340Z,6.80
2018-05-14T23:17:18.726Z,7.13
2018-05-14T23:19:47.079Z,6.90
2018-05-14T23:22:16.410Z,6.30
2018-05-14T23:24:44.032Z,6.93
2018-05-14T23:27:11.667Z,8.37
2018-05-14T23:29:39.273Z,6.87
2018-05-14T23:32:06.838Z,5.77
2018-05-14T23:34:34.437Z,6.53
2018-05-14T23:37:02.124Z,7.20
2018-05-14T23:39:29.691Z,6.77
2018-05-14T23:41:57.320Z,6.87
2018-05-14T23:44:24.927Z,7.10
2018-05-14T23:46:52.591Z,7.20
2018-05-14T23:49:20.308Z,7.23
2018-05-14T23:51:47.996Z,7.17
2018-05-14T23:54:16.475Z,7.07
2018-05-14T23:56:44.145Z,7.17
2018-05-14T23:59:12.612Z,7.27
